sensor_id;sensor_type;location;lat;lon;timestamp;P1;durP1;ratioP1;P2;durP2;ratioP2
71435;SDS011;59251;51.326;12.370;2023-06-22T00:02:26;14.15;;;8.77;;
71435;SDS011;59251;51.326;12.370;2023-06-22T00:04:52;15.50;;;8.80;;
71435;SDS011;59251;51.326;12.370;2023-06-22T00:07:19;16.63;;;9.10;;
71435;SDS011;59251;51.326;12.370;2023-06-22T00:09:46;14.98;;;8.73;;
71435;SDS011;59251;51.326;12.370;2023-06-22T00:12:14;16.52;;;8.52;;
71435;SDS011;59251;51.326;12.370;2023-06-22T00:14:40;13.30;;;8.32;;
71435;SDS011;59251;51.326;12.370;2023-06-22T00:17:07;13.37;;;8.00;;
71435;SDS011;59251;51.326;12.370;2023-06-22T00:19:34;13.43;;;8.00;;
71435;SDS011;59251;51.326;12.370;2023-06-22T00:22:01;14.52;;;8.40;;
71435;SDS011;59251;51.326;12.370;2023-06-22T00:24:28;15.38;;;9.25;;
71435;SDS011;59251;51.326;12.370;2023-06-22T00:26:55;17.20;;;9.00;;
71435;SDS011;59251;51.326;12.370;2023-06-22T00:29:23;16.40;;;9.03;;
71435;SDS011;59251;51.326;12.370;2023-06-22T00:31:49;14.15;;;7.85;;
71435;SDS011;59251;51.326;12.370;2023-06-22T00:34:16;14.38;;;8.80;;
71435;SDS011;59251;51.326;12.370;2023-06-22T00:36:43;15.73;;;8.52;;
71435;SDS011;59251;51.326;12.370;2023-06-22T00:39:09;14.50;;;8.77;;
71435;SDS011;59251;51.326;12.370;2023-06-22T00:41:37;14.93;;;9.03;;
71435;SDS011;59251;51.326;12.370;2023-06-22T00:44:03;13.32;;;8.85;;
71435;SDS011;59251;51.326;12.370;2023-06-22T00:46:33;17.85;;;8.63;;
71435;SDS011;59251;51.326;12.370;2023-06-22T00:49:00;15.95;;;9.05;;
71435;SDS011;59251;51.326;12.370;2023-06-22T00:51:27;14.10;;;8.63;;
71435;SDS011;59251;51.326;12.370;2023-06-22T00:53:54;16.13;;;8.70;;
71435;SDS011;59251;51.326;12.370;2023-06-22T00:56:22;16.88;;;8.70;;
71435;SDS011;59251;51.326;12.370;2023-06-22T00:58:50;16.27;;;8.80;;
71435;SDS011;59251;51.326;12.370;2023-06-22T01:01:19;15.20;;;8.38;;
71435;SDS011;59251;51.326;12.370;2023-06-22T01:03:50;15.25;;;8.90;;
71435;SDS011;59251;51.326;12.370;2023-06-22T01:06:19;14.10;;;8.47;;
71435;SDS011;59251;51.326;12.370;2023-06-22T01:08:56;15.13;;;9.10;;
71435;SDS011;59251;51.326;12.370;2023-06-22T01:11:28;16.23;;;9.68;;
71435;SDS011;59251;51.326;12.370;2023-06-22T01:14:01;14.57;;;8.50;;
71435;SDS011;59251;51.326;12.370;2023-06-22T01:16:33;14.93;;;9.15;;
71435;SDS011;59251;51.326;12.370;2023-06-22T01:19:08;15.50;;;8.63;;
71435;SDS011;59251;51.326;12.370;2023-06-22T01:21:43;15.48;;;10.27;;
71435;SDS011;59251;51.326;12.370;2023-06-22T01:24:15;17.25;;;10.35;;
71435;SDS011;59251;51.326;12.370;2023-06-22T01:26:51;16.95;;;10.15;;
71435;SDS011;59251;51.326;12.370;2023-06-22T01:29:25;19.33;;;10.98;;
71435;SDS011;59251;51.326;12.370;2023-06-22T01:31:54;15.40;;;9.87;;
71435;SDS011;59251;51.326;12.370;2023-06-22T01:34:23;18.20;;;10.43;;
71435;SDS011;59251;51.326;12.370;2023-06-22T01:36:51;18.48;;;10.20;;
71435;SDS011;59251;51.326;12.370;2023-06-22T01:39:19;16.73;;;9.73;;
71435;SDS011;59251;51.326;12.370;2023-06-22T01:41:47;14.57;;;8.60;;
71435;SDS011;59251;51.326;12.370;2023-06-22T01:44:14;17.37;;;8.83;;
71435;SDS011;59251;51.326;12.370;2023-06-22T01:46:43;17.08;;;8.45;;
71435;SDS011;59251;51.326;12.370;2023-06-22T01:49:12;17.20;;;9.73;;
71435;SDS011;59251;51.326;12.370;2023-06-22T01:51:39;16.70;;;9.93;;
71435;SDS011;59251;51.326;12.370;2023-06-22T01:54:06;16.30;;;9.23;;
71435;SDS011;59251;51.326;12.370;2023-06-22T01:56:34;15.83;;;9.30;;
71435;SDS011;59251;51.326;12.370;2023-06-22T01:59:02;14.43;;;9.00;;
71435;SDS011;59251;51.326;12.370;2023-06-22T02:01:35;16.70;;;10.18;;
71435;SDS011;59251;51.326;12.370;2023-06-22T02:04:13;14.98;;;9.55;;
71435;SDS011;59251;51.326;12.370;2023-06-22T02:06:46;18.02;;;9.55;;
71435;SDS011;59251;51.326;12.370;2023-06-22T02:09:17;14.73;;;9.33;;
71435;SDS011;59251;51.326;12.370;2023-06-22T02:11:47;14.85;;;8.77;;
71435;SDS011;59251;51.326;12.370;2023-06-22T02:14:18;16.13;;;10.05;;
71435;SDS011;59251;51.326;12.370;2023-06-22T02:16:46;14.63;;;8.73;;
71435;SDS011;59251;51.326;12.370;2023-06-22T02:19:14;16.10;;;9.85;;
71435;SDS011;59251;51.326;12.370;2023-06-22T02:21:43;15.37;;;9.27;;
71435;SDS011;59251;51.326;12.370;2023-06-22T02:24:12;16.13;;;9.75;;
71435;SDS011;59251;51.326;12.370;2023-06-22T02:26:39;16.33;;;9.07;;
71435;SDS011;59251;51.326;12.370;2023-06-22T02:29:07;15.50;;;9.20;;
71435;SDS011;59251;51.326;12.370;2023-06-22T02:31:34;13.65;;;8.73;;
71435;SDS011;59251;51.326;12.370;2023-06-22T02:34:00;14.77;;;9.53;;
71435;SDS011;59251;51.326;12.370;2023-06-22T02:36:28;14.18;;;9.20;;
71435;SDS011;59251;51.326;12.370;2023-06-22T02:38:55;15.90;;;9.35;;
71435;SDS011;59251;51.326;12.370;2023-06-22T02:41:26;15.65;;;9.75;;
71435;SDS011;59251;51.326;12.370;2023-06-22T02:43:55;15.18;;;9.43;;
71435;SDS011;59251;51.326;12.370;2023-06-22T02:46:21;19.23;;;10.83;;
71435;SDS011;59251;51.326;12.370;2023-06-22T02:48:48;16.02;;;9.57;;
71435;SDS011;59251;51.326;12.370;2023-06-22T02:51:15;15.95;;;10.23;;
71435;SDS011;59251;51.326;12.370;2023-06-22T02:53:43;19.02;;;10.38;;
71435;SDS011;59251;51.326;12.370;2023-06-22T02:56:12;15.80;;;10.40;;
71435;SDS011;59251;51.326;12.370;2023-06-22T02:58:39;18.23;;;10.23;;
71435;SDS011;59251;51.326;12.370;2023-06-22T03:01:09;17.20;;;10.95;;
71435;SDS011;59251;51.326;12.370;2023-06-22T03:03:38;16.48;;;10.50;;
71435;SDS011;59251;51.326;12.370;2023-06-22T03:06:06;16.63;;;10.82;;
71435;SDS011;59251;51.326;12.370;2023-06-22T03:08:32;18.13;;;10.55;;
71435;SDS011;59251;51.326;12.370;2023-06-22T03:11:01;19.10;;;10.90;;
71435;SDS011;59251;51.326;12.370;2023-06-22T03:13:27;17.45;;;10.52;;
71435;SDS011;59251;51.326;12.370;2023-06-22T03:15:54;16.55;;;10.48;;
71435;SDS011;59251;51.326;12.370;2023-06-22T03:18:21;18.08;;;9.88;;
71435;SDS011;59251;51.326;12.370;2023-06-22T03:20:48;16.52;;;9.57;;
71435;SDS011;59251;51.326;12.370;2023-06-22T03:23:14;16.10;;;10.53;;
71435;SDS011;59251;51.326;12.370;2023-06-22T03:25:41;16.80;;;9.45;;
71435;SDS011;59251;51.326;12.370;2023-06-22T03:28:11;16.52;;;9.88;;
71435;SDS011;59251;51.326;12.370;2023-06-22T03:30:37;16.33;;;9.73;;
71435;SDS011;59251;51.326;12.370;2023-06-22T03:33:04;17.88;;;10.68;;
71435;SDS011;59251;51.326;12.370;2023-06-22T03:35:33;14.57;;;9.47;;
71435;SDS011;59251;51.326;12.370;2023-06-22T03:37:59;15.80;;;9.77;;
71435;SDS011;59251;51.326;12.370;2023-06-22T03:40:26;17.05;;;10.70;;
71435;SDS011;59251;51.326;12.370;2023-06-22T03:42:53;17.67;;;10.05;;
71435;SDS011;59251;51.326;12.370;2023-06-22T03:45:21;19.23;;;11.00;;
71435;SDS011;59251;51.326;12.370;2023-06-22T03:47:48;17.80;;;10.63;;
71435;SDS011;59251;51.326;12.370;2023-06-22T03:50:15;14.95;;;9.98;;
71435;SDS011;59251;51.326;12.370;2023-06-22T03:52:41;16.20;;;10.45;;
71435;SDS011;59251;51.326;12.370;2023-06-22T03:55:09;17.55;;;10.95;;
71435;SDS011;59251;51.326;12.370;2023-06-22T03:57:36;17.50;;;11.13;;
71435;SDS011;59251;51.326;12.370;2023-06-22T04:00:03;20.20;;;11.33;;
71435;SDS011;59251;51.326;12.370;2023-06-22T04:02:38;19.77;;;12.05;;
71435;SDS011;59251;51.326;12.370;2023-06-22T04:05:05;17.17;;;10.43;;
71435;SDS011;59251;51.326;12.370;2023-06-22T04:07:32;19.77;;;11.38;;
71435;SDS011;59251;51.326;12.370;2023-06-22T04:09:59;18.05;;;11.27;;
71435;SDS011;59251;51.326;12.370;2023-06-22T04:12:26;19.40;;;11.27;;
71435;SDS011;59251;51.326;12.370;2023-06-22T04:14:52;18.65;;;11.18;;
71435;SDS011;59251;51.326;12.370;2023-06-22T04:17:19;17.67;;;11.32;;
71435;SDS011;59251;51.326;12.370;2023-06-22T04:19:47;17.15;;;10.50;;
71435;SDS011;59251;51.326;12.370;2023-06-22T04:22:14;16.35;;;9.90;;
71435;SDS011;59251;51.326;12.370;2023-06-22T04:24:40;19.77;;;11.80;;
71435;SDS011;59251;51.326;12.370;2023-06-22T04:27:07;16.73;;;11.27;;
71435;SDS011;59251;51.326;12.370;2023-06-22T04:29:34;20.77;;;13.43;;
71435;SDS011;59251;51.326;12.370;2023-06-22T04:32:00;19.15;;;12.50;;
71435;SDS011;59251;51.326;12.370;2023-06-22T04:34:30;22.45;;;12.68;;
71435;SDS011;59251;51.326;12.370;2023-06-22T04:36:58;21.30;;;13.13;;
71435;SDS011;59251;51.326;12.370;2023-06-22T04:39:25;18.50;;;11.98;;
71435;SDS011;59251;51.326;12.370;2023-06-22T04:41:52;21.38;;;13.25;;
71435;SDS011;59251;51.326;12.370;2023-06-22T04:44:20;20.80;;;13.95;;
71435;SDS011;59251;51.326;12.370;2023-06-22T04:46:50;22.17;;;13.93;;
71435;SDS011;59251;51.326;12.370;2023-06-22T04:49:19;23.33;;;12.63;;
71435;SDS011;59251;51.326;12.370;2023-06-22T04:51:47;22.02;;;14.25;;
71435;SDS011;59251;51.326;12.370;2023-06-22T04:54:18;22.77;;;13.70;;
71435;SDS011;59251;51.326;12.370;2023-06-22T04:56:44;22.35;;;13.50;;
71435;SDS011;59251;51.326;12.370;2023-06-22T04:59:11;20.92;;;13.35;;
71435;SDS011;59251;51.326;12.370;2023-06-22T05:01:39;20.50;;;12.67;;
71435;SDS011;59251;51.326;12.370;2023-06-22T05:04:05;24.17;;;13.57;;
71435;SDS011;59251;51.326;12.370;2023-06-22T05:06:32;20.58;;;13.52;;
71435;SDS011;59251;51.326;12.370;2023-06-22T05:08:59;23.13;;;13.73;;
71435;SDS011;59251;51.326;12.370;2023-06-22T05:11:27;20.33;;;13.32;;
71435;SDS011;59251;51.326;12.370;2023-06-22T05:13:54;21.30;;;13.90;;
71435;SDS011;59251;51.326;12.370;2023-06-22T05:16:22;22.65;;;13.90;;
71435;SDS011;59251;51.326;12.370;2023-06-22T05:18:51;19.55;;;12.52;;
71435;SDS011;59251;51.326;12.370;2023-06-22T05:21:21;21.70;;;13.00;;
71435;SDS011;59251;51.326;12.370;2023-06-22T05:23:49;21.23;;;13.02;;
71435;SDS011;59251;51.326;12.370;2023-06-22T05:26:16;21.67;;;13.23;;
71435;SDS011;59251;51.326;12.370;2023-06-22T05:28:44;21.65;;;12.05;;
71435;SDS011;59251;51.326;12.370;2023-06-22T05:31:12;22.40;;;13.30;;
71435;SDS011;59251;51.326;12.370;2023-06-22T05:33:39;18.40;;;11.95;;
71435;SDS011;59251;51.326;12.370;2023-06-22T05:36:06;18.90;;;11.77;;
71435;SDS011;59251;51.326;12.370;2023-06-22T05:38:33;22.43;;;12.70;;
71435;SDS011;59251;51.326;12.370;2023-06-22T05:41:00;21.00;;;12.15;;
71435;SDS011;59251;51.326;12.370;2023-06-22T05:43:27;22.58;;;11.68;;
71435;SDS011;59251;51.326;12.370;2023-06-22T05:45:55;21.40;;;12.45;;
71435;SDS011;59251;51.326;12.370;2023-06-22T05:48:22;17.70;;;12.43;;
71435;SDS011;59251;51.326;12.370;2023-06-22T05:50:49;17.63;;;11.33;;
71435;SDS011;59251;51.326;12.370;2023-06-22T05:53:16;17.05;;;10.60;;
71435;SDS011;59251;51.326;12.370;2023-06-22T05:55:43;22.42;;;12.18;;
71435;SDS011;59251;51.326;12.370;2023-06-22T05:58:09;19.80;;;11.43;;
71435;SDS011;59251;51.326;12.370;2023-06-22T06:00:36;18.95;;;10.63;;
71435;SDS011;59251;51.326;12.370;2023-06-22T06:03:04;19.70;;;10.60;;
71435;SDS011;59251;51.326;12.370;2023-06-22T06:05:31;16.35;;;10.60;;
71435;SDS011;59251;51.326;12.370;2023-06-22T06:08:00;18.15;;;10.93;;
71435;SDS011;59251;51.326;12.370;2023-06-22T06:10:27;18.25;;;10.93;;
71435;SDS011;59251;51.326;12.370;2023-06-22T06:12:54;19.38;;;11.52;;
71435;SDS011;59251;51.326;12.370;2023-06-22T06:15:21;18.60;;;11.47;;
71435;SDS011;59251;51.326;12.370;2023-06-22T06:17:48;21.58;;;11.68;;
71435;SDS011;59251;51.326;12.370;2023-06-22T06:20:18;19.20;;;9.90;;
71435;SDS011;59251;51.326;12.370;2023-06-22T06:22:46;18.35;;;10.48;;
71435;SDS011;59251;51.326;12.370;2023-06-22T06:25:13;19.15;;;10.82;;
71435;SDS011;59251;51.326;12.370;2023-06-22T06:27:42;18.57;;;10.60;;
71435;SDS011;59251;51.326;12.370;2023-06-22T06:30:09;17.13;;;9.55;;
71435;SDS011;59251;51.326;12.370;2023-06-22T06:32:37;16.45;;;9.68;;
71435;SDS011;59251;51.326;12.370;2023-06-22T06:35:05;15.73;;;9.57;;
71435;SDS011;59251;51.326;12.370;2023-06-22T06:37:35;16.20;;;8.98;;
71435;SDS011;59251;51.326;12.370;2023-06-22T06:40:02;16.40;;;9.77;;
71435;SDS011;59251;51.326;12.370;2023-06-22T06:42:32;14.98;;;9.02;;
71435;SDS011;59251;51.326;12.370;2023-06-22T06:44:59;15.50;;;8.85;;
71435;SDS011;59251;51.326;12.370;2023-06-22T06:47:25;16.73;;;9.35;;
71435;SDS011;59251;51.326;12.370;2023-06-22T06:49:52;16.05;;;9.52;;
71435;SDS011;59251;51.326;12.370;2023-06-22T06:52:19;14.80;;;8.60;;
71435;SDS011;59251;51.326;12.370;2023-06-22T06:54:47;15.00;;;8.68;;
71435;SDS011;59251;51.326;12.370;2023-06-22T06:57:13;14.13;;;8.45;;
71435;SDS011;59251;51.326;12.370;2023-06-22T06:59:40;14.07;;;8.75;;
71435;SDS011;59251;51.326;12.370;2023-06-22T07:02:07;12.95;;;8.35;;
71435;SDS011;59251;51.326;12.370;2023-06-22T07:04:34;15.23;;;9.20;;
71435;SDS011;59251;51.326;12.370;2023-06-22T07:07:01;13.70;;;8.52;;
71435;SDS011;59251;51.326;12.370;2023-06-22T07:09:28;15.57;;;8.45;;
71435;SDS011;59251;51.326;12.370;2023-06-22T07:11:56;13.50;;;8.75;;
71435;SDS011;59251;51.326;12.370;2023-06-22T07:14:23;14.65;;;9.18;;
71435;SDS011;59251;51.326;12.370;2023-06-22T07:16:49;17.67;;;8.83;;
71435;SDS011;59251;51.326;12.370;2023-06-22T07:19:16;13.00;;;8.27;;
71435;SDS011;59251;51.326;12.370;2023-06-22T07:21:50;14.55;;;8.27;;
71435;SDS011;59251;51.326;12.370;2023-06-22T07:24:17;12.73;;;8.50;;
71435;SDS011;59251;51.326;12.370;2023-06-22T07:26:45;13.93;;;7.80;;
71435;SDS011;59251;51.326;12.370;2023-06-22T07:29:14;14.53;;;9.20;;
71435;SDS011;59251;51.326;12.370;2023-06-22T07:31:41;12.00;;;7.85;;
71435;SDS011;59251;51.326;12.370;2023-06-22T07:34:07;14.07;;;8.07;;
71435;SDS011;59251;51.326;12.370;2023-06-22T07:36:34;12.90;;;7.82;;
71435;SDS011;59251;51.326;12.370;2023-06-22T07:39:01;12.75;;;8.10;;
71435;SDS011;59251;51.326;12.370;2023-06-22T07:41:29;20.43;;;8.53;;
71435;SDS011;59251;51.326;12.370;2023-06-22T07:43:56;13.68;;;8.27;;
71435;SDS011;59251;51.326;12.370;2023-06-22T07:46:24;13.25;;;8.30;;
71435;SDS011;59251;51.326;12.370;2023-06-22T07:48:51;13.45;;;8.35;;
71435;SDS011;59251;51.326;12.370;2023-06-22T07:51:17;15.63;;;8.77;;
71435;SDS011;59251;51.326;12.370;2023-06-22T07:53:44;11.70;;;7.50;;
71435;SDS011;59251;51.326;12.370;2023-06-22T07:56:11;13.77;;;9.38;;
71435;SDS011;59251;51.326;12.370;2023-06-22T07:58:37;14.10;;;9.20;;
71435;SDS011;59251;51.326;12.370;2023-06-22T08:01:04;17.10;;;9.02;;
71435;SDS011;59251;51.326;12.370;2023-06-22T08:03:32;13.95;;;8.77;;
71435;SDS011;59251;51.326;12.370;2023-06-22T08:05:59;15.37;;;8.77;;
71435;SDS011;59251;51.326;12.370;2023-06-22T08:08:26;12.95;;;8.32;;
71435;SDS011;59251;51.326;12.370;2023-06-22T08:10:52;17.33;;;8.65;;
71435;SDS011;59251;51.326;12.370;2023-06-22T08:13:20;13.07;;;8.57;;
71435;SDS011;59251;51.326;12.370;2023-06-22T08:15:47;14.32;;;8.65;;
71435;SDS011;59251;51.326;12.370;2023-06-22T08:18:14;13.07;;;8.17;;
71435;SDS011;59251;51.326;12.370;2023-06-22T08:20:43;12.18;;;8.20;;
71435;SDS011;59251;51.326;12.370;2023-06-22T08:23:09;14.90;;;8.07;;
71435;SDS011;59251;51.326;12.370;2023-06-22T08:25:36;13.45;;;8.20;;
71435;SDS011;59251;51.326;12.370;2023-06-22T08:28:03;12.32;;;8.07;;
71435;SDS011;59251;51.326;12.370;2023-06-22T08:30:30;12.73;;;7.53;;
71435;SDS011;59251;51.326;12.370;2023-06-22T08:32:57;13.02;;;8.45;;
71435;SDS011;59251;51.326;12.370;2023-06-22T08:35:23;16.38;;;8.57;;
71435;SDS011;59251;51.326;12.370;2023-06-22T08:37:52;12.45;;;8.05;;
71435;SDS011;59251;51.326;12.370;2023-06-22T08:40:19;13.93;;;8.02;;
71435;SDS011;59251;51.326;12.370;2023-06-22T08:42:47;11.80;;;7.53;;
71435;SDS011;59251;51.326;12.370;2023-06-22T08:45:14;11.70;;;7.50;;
71435;SDS011;59251;51.326;12.370;2023-06-22T08:47:41;11.43;;;8.05;;
71435;SDS011;59251;51.326;12.370;2023-06-22T08:50:08;14.27;;;8.60;;
71435;SDS011;59251;51.326;12.370;2023-06-22T08:52:35;11.73;;;7.72;;
71435;SDS011;59251;51.326;12.370;2023-06-22T08:55:04;11.93;;;7.83;;
71435;SDS011;59251;51.326;12.370;2023-06-22T08:57:32;14.27;;;7.82;;
71435;SDS011;59251;51.326;12.370;2023-06-22T08:59:59;12.88;;;8.13;;
71435;SDS011;59251;51.326;12.370;2023-06-22T09:02:26;12.13;;;8.20;;
71435;SDS011;59251;51.326;12.370;2023-06-22T09:04:55;13.70;;;8.60;;
71435;SDS011;59251;51.326;12.370;2023-06-22T09:07:23;13.70;;;7.93;;
71435;SDS011;59251;51.326;12.370;2023-06-22T09:09:51;13.43;;;7.85;;
71435;SDS011;59251;51.326;12.370;2023-06-22T09:12:20;12.55;;;7.63;;
71435;SDS011;59251;51.326;12.370;2023-06-22T09:14:52;11.55;;;7.75;;
71435;SDS011;59251;51.326;12.370;2023-06-22T09:17:19;11.18;;;6.70;;
71435;SDS011;59251;51.326;12.370;2023-06-22T09:19:45;13.03;;;7.30;;
71435;SDS011;59251;51.326;12.370;2023-06-22T09:22:12;11.15;;;6.82;;
71435;SDS011;59251;51.326;12.370;2023-06-22T09:24:39;10.45;;;6.35;;
71435;SDS011;59251;51.326;12.370;2023-06-22T09:27:06;10.98;;;6.40;;
71435;SDS011;59251;51.326;12.370;2023-06-22T09:29:34;13.25;;;7.28;;
71435;SDS011;59251;51.326;12.370;2023-06-22T09:32:01;11.77;;;6.37;;
71435;SDS011;59251;51.326;12.370;2023-06-22T09:34:28;9.30;;;5.97;;
71435;SDS011;59251;51.326;12.370;2023-06-22T09:36:56;10.38;;;6.28;;
71435;SDS011;59251;51.326;12.370;2023-06-22T09:39:25;10.15;;;6.72;;
71435;SDS011;59251;51.326;12.370;2023-06-22T09:41:52;11.13;;;6.72;;
71435;SDS011;59251;51.326;12.370;2023-06-22T09:44:19;10.87;;;6.07;;
71435;SDS011;59251;51.326;12.370;2023-06-22T09:46:47;10.40;;;5.90;;
71435;SDS011;59251;51.326;12.370;2023-06-22T09:49:13;10.07;;;6.63;;
71435;SDS011;59251;51.326;12.370;2023-06-22T09:51:40;11.27;;;6.15;;
71435;SDS011;59251;51.326;12.370;2023-06-22T09:54:07;10.50;;;7.15;;
71435;SDS011;59251;51.326;12.370;2023-06-22T09:56:33;10.33;;;6.30;;
71435;SDS011;59251;51.326;12.370;2023-06-22T09:59:00;9.05;;;5.60;;
71435;SDS011;59251;51.326;12.370;2023-06-22T10:01:27;11.18;;;6.15;;
71435;SDS011;59251;51.326;12.370;2023-06-22T10:03:55;10.48;;;6.10;;
71435;SDS011;59251;51.326;12.370;2023-06-22T10:06:22;10.38;;;6.20;;
71435;SDS011;59251;51.326;12.370;2023-06-22T10:08:50;10.63;;;6.00;;
71435;SDS011;59251;51.326;12.370;2023-06-22T10:11:16;9.13;;;5.30;;
71435;SDS011;59251;51.326;12.370;2023-06-22T10:13:43;9.60;;;6.25;;
71435;SDS011;59251;51.326;12.370;2023-06-22T10:16:10;12.02;;;6.53;;
71435;SDS011;59251;51.326;12.370;2023-06-22T10:18:37;10.30;;;6.47;;
71435;SDS011;59251;51.326;12.370;2023-06-22T10:21:05;10.40;;;6.20;;
71435;SDS011;59251;51.326;12.370;2023-06-22T10:23:31;12.30;;;6.45;;
71435;SDS011;59251;51.326;12.370;2023-06-22T10:25:58;9.60;;;5.63;;
71435;SDS011;59251;51.326;12.370;2023-06-22T10:28:25;9.55;;;6.00;;
71435;SDS011;59251;51.326;12.370;2023-06-22T10:30:51;10.57;;;6.30;;
71435;SDS011;59251;51.326;12.370;2023-06-22T10:33:18;9.73;;;6.30;;
71435;SDS011;59251;51.326;12.370;2023-06-22T10:35:45;11.07;;;6.30;;
71435;SDS011;59251;51.326;12.370;2023-06-22T10:38:13;12.60;;;6.28;;
71435;SDS011;59251;51.326;12.370;2023-06-22T10:40:40;10.57;;;6.13;;
71435;SDS011;59251;51.326;12.370;2023-06-22T10:43:07;10.32;;;5.72;;
71435;SDS011;59251;51.326;12.370;2023-06-22T10:45:33;9.10;;;5.80;;
71435;SDS011;59251;51.326;12.370;2023-06-22T10:48:00;9.23;;;5.82;;
71435;SDS011;59251;51.326;12.370;2023-06-22T10:50:27;10.13;;;5.50;;
71435;SDS011;59251;51.326;12.370;2023-06-22T10:52:53;9.35;;;6.05;;
71435;SDS011;59251;51.326;12.370;2023-06-22T10:55:22;11.48;;;5.65;;
71435;SDS011;59251;51.326;12.370;2023-06-22T10:57:48;9.23;;;5.77;;
71435;SDS011;59251;51.326;12.370;2023-06-22T11:00:15;10.57;;;6.22;;
71435;SDS011;59251;51.326;12.370;2023-06-22T11:02:42;10.95;;;6.00;;
71435;SDS011;59251;51.326;12.370;2023-06-22T11:05:09;10.02;;;6.05;;
71435;SDS011;59251;51.326;12.370;2023-06-22T11:07:36;9.27;;;6.00;;
71435;SDS011;59251;51.326;12.370;2023-06-22T11:10:04;12.40;;;5.70;;
71435;SDS011;59251;51.326;12.370;2023-06-22T11:12:32;9.55;;;6.35;;
71435;SDS011;59251;51.326;12.370;2023-06-22T11:14:59;10.82;;;6.55;;
71435;SDS011;59251;51.326;12.370;2023-06-22T11:17:26;8.35;;;5.53;;
71435;SDS011;59251;51.326;12.370;2023-06-22T11:19:52;9.98;;;6.18;;
71435;SDS011;59251;51.326;12.370;2023-06-22T11:22:19;10.93;;;6.03;;
71435;SDS011;59251;51.326;12.370;2023-06-22T11:24:46;13.05;;;6.40;;
71435;SDS011;59251;51.326;12.370;2023-06-22T11:27:13;9.82;;;5.75;;
71435;SDS011;59251;51.326;12.370;2023-06-22T11:29:41;9.55;;;5.82;;
71435;SDS011;59251;51.326;12.370;2023-06-22T11:32:07;11.30;;;6.20;;
71435;SDS011;59251;51.326;12.370;2023-06-22T11:34:34;11.10;;;6.90;;
71435;SDS011;59251;51.326;12.370;2023-06-22T11:37:01;10.98;;;6.65;;
71435;SDS011;59251;51.326;12.370;2023-06-22T11:39:28;10.68;;;7.30;;
71435;SDS011;59251;51.326;12.370;2023-06-22T11:41:54;10.93;;;6.82;;
71435;SDS011;59251;51.326;12.370;2023-06-22T11:44:21;11.45;;;7.53;;
71435;SDS011;59251;51.326;12.370;2023-06-22T11:46:49;10.00;;;6.50;;
71435;SDS011;59251;51.326;12.370;2023-06-22T11:49:16;9.45;;;6.18;;
71435;SDS011;59251;51.326;12.370;2023-06-22T11:51:42;9.88;;;6.53;;
71435;SDS011;59251;51.326;12.370;2023-06-22T11:54:09;11.23;;;6.70;;
71435;SDS011;59251;51.326;12.370;2023-06-22T11:56:36;9.63;;;6.72;;
71435;SDS011;59251;51.326;12.370;2023-06-22T11:59:02;12.60;;;7.47;;
71435;SDS011;59251;51.326;12.370;2023-06-22T12:01:30;10.45;;;6.60;;
71435;SDS011;59251;51.326;12.370;2023-06-22T12:04:00;10.23;;;7.13;;
71435;SDS011;59251;51.326;12.370;2023-06-22T12:06:26;9.88;;;6.97;;
71435;SDS011;59251;51.326;12.370;2023-06-22T12:08:53;10.13;;;6.75;;
71435;SDS011;59251;51.326;12.370;2023-06-22T12:11:20;9.93;;;6.70;;
71435;SDS011;59251;51.326;12.370;2023-06-22T12:13:46;10.15;;;7.05;;
71435;SDS011;59251;51.326;12.370;2023-06-22T12:16:13;9.57;;;6.85;;
71435;SDS011;59251;51.326;12.370;2023-06-22T12:18:40;9.73;;;6.60;;
71435;SDS011;59251;51.326;12.370;2023-06-22T12:21:08;10.88;;;6.90;;
71435;SDS011;59251;51.326;12.370;2023-06-22T12:23:35;10.70;;;7.33;;
71435;SDS011;59251;51.326;12.370;2023-06-22T12:26:01;11.32;;;7.00;;
71435;SDS011;59251;51.326;12.370;2023-06-22T12:28:28;13.05;;;7.63;;
71435;SDS011;59251;51.326;12.370;2023-06-22T12:30:55;9.77;;;7.18;;
71435;SDS011;59251;51.326;12.370;2023-06-22T12:33:21;10.45;;;7.15;;
71435;SDS011;59251;51.326;12.370;2023-06-22T12:35:48;9.87;;;6.83;;
71435;SDS011;59251;51.326;12.370;2023-06-22T12:38:16;9.82;;;7.00;;
71435;SDS011;59251;51.326;12.370;2023-06-22T12:40:43;9.80;;;7.45;;
71435;SDS011;59251;51.326;12.370;2023-06-22T12:43:09;12.00;;;7.13;;
71435;SDS011;59251;51.326;12.370;2023-06-22T12:45:36;10.38;;;7.55;;
71435;SDS011;59251;51.326;12.370;2023-06-22T12:48:03;10.60;;;7.30;;
71435;SDS011;59251;51.326;12.370;2023-06-22T12:50:30;10.30;;;7.45;;
71435;SDS011;59251;51.326;12.370;2023-06-22T12:52:57;10.00;;;7.28;;
71435;SDS011;59251;51.326;12.370;2023-06-22T12:55:25;10.43;;;7.25;;
71435;SDS011;59251;51.326;12.370;2023-06-22T12:57:51;12.20;;;7.63;;
71435;SDS011;59251;51.326;12.370;2023-06-22T13:00:18;11.93;;;7.50;;
71435;SDS011;59251;51.326;12.370;2023-06-22T13:02:45;10.43;;;7.20;;
71435;SDS011;59251;51.326;12.370;2023-06-22T13:05:12;12.88;;;7.90;;
71435;SDS011;59251;51.326;12.370;2023-06-22T13:07:39;11.55;;;7.70;;
71435;SDS011;59251;51.326;12.370;2023-06-22T13:10:07;12.45;;;7.50;;
71435;SDS011;59251;51.326;12.370;2023-06-22T13:12:35;10.70;;;7.40;;
71435;SDS011;59251;51.326;12.370;2023-06-22T13:15:02;11.13;;;7.28;;
71435;SDS011;59251;51.326;12.370;2023-06-22T13:17:30;10.30;;;7.05;;
71435;SDS011;59251;51.326;12.370;2023-06-22T13:19:56;10.45;;;7.20;;
71435;SDS011;59251;51.326;12.370;2023-06-22T13:22:26;10.20;;;6.88;;
71435;SDS011;59251;51.326;12.370;2023-06-22T13:24:55;11.17;;;7.77;;
71435;SDS011;59251;51.326;12.370;2023-06-22T13:27:21;9.55;;;7.53;;
71435;SDS011;59251;51.326;12.370;2023-06-22T13:29:49;11.55;;;7.63;;
71435;SDS011;59251;51.326;12.370;2023-06-22T13:32:16;12.75;;;7.43;;
71435;SDS011;59251;51.326;12.370;2023-06-22T13:34:43;9.88;;;7.13;;
71435;SDS011;59251;51.326;12.370;2023-06-22T13:37:10;13.27;;;7.60;;
71435;SDS011;59251;51.326;12.370;2023-06-22T13:39:37;9.70;;;7.35;;
71435;SDS011;59251;51.326;12.370;2023-06-22T13:42:04;9.77;;;7.57;;
71435;SDS011;59251;51.326;12.370;2023-06-22T13:44:31;9.50;;;7.45;;
71435;SDS011;59251;51.326;12.370;2023-06-22T13:46:59;13.38;;;7.72;;
71435;SDS011;59251;51.326;12.370;2023-06-22T13:49:26;11.17;;;7.50;;
71435;SDS011;59251;51.326;12.370;2023-06-22T13:51:53;11.07;;;7.60;;
71435;SDS011;59251;51.326;12.370;2023-06-22T13:54:19;12.52;;;8.15;;
71435;SDS011;59251;51.326;12.370;2023-06-22T13:56:46;10.80;;;7.95;;
71435;SDS011;59251;51.326;12.370;2023-06-22T13:59:13;13.02;;;8.88;;
71435;SDS011;59251;51.326;12.370;2023-06-22T14:01:39;11.20;;;8.00;;
71435;SDS011;59251;51.326;12.370;2023-06-22T14:04:08;10.32;;;7.55;;
71435;SDS011;59251;51.326;12.370;2023-06-22T14:06:35;11.63;;;7.65;;
71435;SDS011;59251;51.326;12.370;2023-06-22T14:09:01;11.25;;;7.93;;
71435;SDS011;59251;51.326;12.370;2023-06-22T14:11:28;12.02;;;8.25;;
71435;SDS011;59251;51.326;12.370;2023-06-22T14:13:55;10.20;;;7.93;;
71435;SDS011;59251;51.326;12.370;2023-06-22T14:16:21;10.77;;;7.07;;
71435;SDS011;59251;51.326;12.370;2023-06-22T14:18:48;9.52;;;7.45;;
71435;SDS011;59251;51.326;12.370;2023-06-22T14:21:16;11.80;;;7.60;;